Time;durP1;ratioP1;P1;durP2;ratioP2;P2;SDS_P1;SDS_P2;PMS_P1;PMS_P2;Temp;Humidity;BMP_temperature;BMP_pressure;BME280_temperature;BME280_humidity;BME280_pressure;Samples;Min_cycle;Max_cycle;Signal;HPM_P1;HPM_P2
2020/12/26 00:01:21;;;;;;;8.33;1.80;;;24.00;76.40;;;;;;5073275;28;20187;-70
2020/12/26 00:03:49;;;;;;;10.50;1.90;;;23.70;76.80;;;;;;5073497;28;20203;-70
2020/12/26 00:06:20;;;;;;;12.03;1.70;;;23.50;75.80;;;;;;5080669;28;20175;-70
2020/12/26 00:08:50;;;;;;;6.87;1.57;;;23.20;76.50;;;;;;5074912;28;20282;-69
2020/12/26 00:11:19;;;;;;;7.53;2.03;;;23.00;78.20;;;;;;5074072;28;20183;-70
2020/12/26 00:13:49;;;;;;;8.90;1.63;;;22.80;79.70;;;;;;5071221;28;20187;-69
2020/12/26 00:16:17;;;;;;;6.60;1.73;;;22.60;79.70;;;;;;5073437;28;20191;-69
2020/12/26 00:18:45;;;;;;;8.83;1.70;;;22.50;81.60;;;;;;5067477;28;20188;-70
2020/12/26 00:21:17;;;;;;;7.90;1.50;;;22.40;82.40;;;;;;5072086;28;20588;-69
2020/12/26 00:23:45;;;;;;;13.77;2.13;;;22.30;82.20;;;;;;5070732;28;20179;-69
2020/12/26 00:26:16;;;;;;;10.87;1.57;;;22.20;83.30;;;;;;5071619;28;20198;-69
2020/12/26 00:28:44;;;;;;;8.10;1.67;;;22.50;83.50;;;;;;5072916;28;20266;-69
2020/12/26 00:31:18;;;;;;;5.43;1.50;;;22.50;82.20;;;;;;5071346;28;20253;-68
2020/12/26 00:33:46;;;;;;;11.33;1.77;;;22.60;81.90;;;;;;5069686;28;20225;-69
2020/12/26 00:36:13;;;;;;;8.23;1.80;;;22.50;82.60;;;;;;5071383;28;20171;-69
2020/12/26 00:38:41;;;;;;;4.63;1.23;;;22.30;82.70;;;;;;5072305;28;20173;-69
2020/12/26 00:41:12;;;;;;;6.90;1.87;;;22.10;83.50;;;;;;5072931;28;20183;-69
2020/12/26 00:43:40;;;;;;;5.70;1.47;;;21.90;84.10;;;;;;5071166;28;20182;-68
2020/12/26 00:46:07;;;;;;;3.40;1.43;;;22.00;85.70;;;;;;5072845;28;20217;-68
2020/12/26 00:48:35;;;;;;;8.13;1.60;;;22.00;84.60;;;;;;5072479;28;20573;-69
2020/12/26 00:51:03;;;;;;;9.50;3.17;;;22.10;84.60;;;;;;5072236;28;20649;-70
2020/12/26 00:53:30;;;;;;;5.07;1.57;;;22.30;82.50;;;;;;5072984;28;20183;-69
2020/12/26 00:55:58;;;;;;;9.70;1.50;;;22.30;82.00;;;;;;5072008;28;20175;-69
2020/12/26 00:58:25;;;;;;;6.87;1.47;;;22.30;81.90;;;;;;5072239;28;20179;-69
2020/12/26 01:00:53;;;;;;;8.50;1.70;;;22.40;81.50;;;;;;5072885;28;20811;-68
2020/12/26 01:03:20;;;;;;;5.27;1.43;;;22.60;81.10;;;;;;5062437;28;20178;-68
2020/12/26 01:05:47;;;;;;;6.90;1.70;;;22.90;80.40;;;;;;5072060;28;20184;-69
2020/12/26 01:08:15;;;;;;;8.50;2.17;;;23.30;79.60;;;;;;5069441;28;20163;-69
2020/12/26 01:10:42;;;;;;;6.80;1.43;;;23.70;77.50;;;;;;5064678;28;20489;-69
2020/12/26 01:13:10;;;;;;;3.20;1.53;;;23.70;77.20;;;;;;5072598;28;20175;-68
2020/12/26 01:15:37;;;;;;;9.27;1.70;;;23.80;75.80;;;;;;5070886;28;20175;-68
2020/12/26 01:18:04;;;;;;;8.23;1.63;;;23.80;75.10;;;;;;5066253;28;20525;-69
2020/12/26 01:20:32;;;;;;;13.80;4.67;;;23.90;76.00;;;;;;5071725;28;20639;-68
2020/12/26 01:22:59;;;;;;;13.10;3.27;;;24.00;74.80;;;;;;5069030;28;20174;-70
2020/12/26 01:25:27;;;;;;;7.87;1.80;;;24.00;74.60;;;;;;5070728;28;20219;-68
2020/12/26 01:27:54;;;;;;;7.43;2.33;;;24.10;74.40;;;;;;5072527;28;20175;-71
2020/12/26 01:30:21;;;;;;;5.33;1.63;;;24.20;73.60;;;;;;5071558;28;20649;-70
2020/12/26 01:32:49;;;;;;;7.90;1.63;;;24.20;73.90;;;;;;5071721;28;20681;-69
2020/12/26 01:35:16;;;;;;;8.13;1.77;;;24.50;73.60;;;;;;5064668;28;20164;-70
2020/12/26 01:37:44;;;;;;;6.40;1.37;;;24.60;72.80;;;;;;5073153;28;20273;-69
2020/12/26 01:40:11;;;;;;;8.23;2.10;;;24.60;72.20;;;;;;5069044;28;20739;-69
2020/12/26 01:42:39;;;;;;;12.53;2.20;;;24.30;74.10;;;;;;5072454;28;20175;-69
2020/12/26 01:45:07;;;;;;;9.80;2.23;;;24.40;74.70;;;;;;5076616;28;20176;-70
2020/12/26 01:47:34;;;;;;;10.93;2.10;;;24.40;75.00;;;;;;5076359;28;20182;-70
2020/12/26 01:50:02;;;;;;;6.37;1.80;;;24.30;75.10;;;;;;5075854;28;20207;-70
2020/12/26 01:52:30;;;;;;;10.53;1.90;;;24.20;73.90;;;;;;5072515;28;20225;-69
2020/12/26 01:54:59;;;;;;;10.43;1.77;;;24.10;74.40;;;;;;5075551;28;20179;-71
2020/12/26 01:57:36;;;;;;;4.87;1.57;;;24.40;74.70;;;;;;5074689;28;20179;-70
2020/12/26 02:00:06;;;;;;;6.40;1.40;;;24.90;72.90;;;;;;5072819;28;20261;-71
2020/12/26 02:02:34;;;;;;;7.83;2.00;;;25.20;72.30;;;;;;5075592;28;20254;-70
2020/12/26 02:05:01;;;;;;;8.03;1.90;;;25.30;71.60;;;;;;5076856;28;20289;-70
2020/12/26 02:07:28;;;;;;;10.33;1.90;;;24.90;72.10;;;;;;5075576;28;20510;-70
2020/12/26 02:09:56;;;;;;;9.20;1.50;;;24.80;72.30;;;;;;5074963;28;20190;-70
2020/12/26 02:12:23;;;;;;;9.57;2.03;;;24.70;72.40;;;;;;5076328;28;20266;-72
2020/12/26 02:14:50;;;;;;;8.57;1.50;;;24.70;72.70;;;;;;5072361;28;20179;-71
2020/12/26 02:17:28;;;;;;;9.03;1.67;;;24.60;72.60;;;;;;5076555;28;20180;-71
2020/12/26 02:19:55;;;;;;;7.47;1.60;;;24.40;73.60;;;;;;5075304;28;20268;-70
2020/12/26 02:22:22;;;;;;;3.73;1.20;;;24.70;73.90;;;;;;5076360;28;20255;-71
2020/12/26 02:24:50;;;;;;;5.30;1.43;;;24.90;72.90;;;;;;5074981;28;20215;-70
2020/12/26 02:27:17;;;;;;;5.83;1.40;;;25.20;72.50;;;;;;5075782;28;20167;-70
2020/12/26 02:29:44;;;;;;;8.40;2.20;;;25.50;72.00;;;;;;5076217;28;20547;-71
2020/12/26 02:32:12;;;;;;;8.30;1.50;;;26.00;70.20;;;;;;5075508;28;20167;-72
2020/12/26 02:34:39;;;;;;;11.67;1.90;;;26.10;67.60;;;;;;5076219;28;20176;-73
2020/12/26 02:37:07;;;;;;;8.00;1.93;;;25.90;68.30;;;;;;5075829;28;20637;-70
2020/12/26 02:39:34;;;;;;;5.63;1.67;;;25.80;68.70;;;;;;5075780;28;20559;-71
2020/12/26 02:42:01;;;;;;;6.60;1.40;;;26.10;69.40;;;;;;5075846;28;20182;-71
2020/12/26 02:44:29;;;;;;;7.23;1.50;;;26.20;66.80;;;;;;5075841;28;20245;-70
2020/12/26 02:46:56;;;;;;;7.00;1.70;;;26.60;65.10;;;;;;5075584;28;20183;-70
2020/12/26 02:49:24;;;;;;;7.30;1.70;;;26.60;65.30;;;;;;5075420;28;20589;-71
2020/12/26 02:51:51;;;;;;;6.27;1.27;;;27.20;64.90;;;;;;5075857;28;20199;-70
2020/12/26 02:54:18;;;;;;;8.47;1.33;;;27.00;64.50;;;;;;5075376;28;20183;-70
2020/12/26 02:56:46;;;;;;;8.43;1.53;;;26.40;66.00;;;;;;5075592;28;20270;-71
2020/12/26 02:59:13;;;;;;;6.50;1.33;;;26.30;66.00;;;;;;5075499;28;20301;-72
2020/12/26 03:01:41;;;;;;;5.57;1.10;;;26.20;65.90;;;;;;5075534;28;20233;-71
2020/12/26 03:04:09;;;;;;;10.50;2.03;;;26.20;65.40;;;;;;5064904;28;20269;-70
2020/12/26 03:06:36;;;;;;;9.83;2.07;;;26.00;66.60;;;;;;5068412;28;20622;-71
2020/12/26 03:09:03;;;;;;;7.37;1.57;;;26.60;65.00;;;;;;5073081;28;20179;-73
2020/12/26 03:11:31;;;;;;;10.20;1.57;;;26.10;65.80;;;;;;5074493;28;20196;-70
2020/12/26 03:13:58;;;;;;;6.57;1.40;;;26.30;66.60;;;;;;5075080;28;20183;-73
2020/12/26 03:16:26;;;;;;;10.00;1.53;;;26.20;66.40;;;;;;5074002;28;20296;-71
2020/12/26 03:18:53;;;;;;;9.67;1.80;;;26.10;66.80;;;;;;5074966;28;20273;-71
2020/12/26 03:21:21;;;;;;;8.73;1.50;;;25.80;66.90;;;;;;5074928;28;20171;-71
2020/12/26 03:23:48;;;;;;;5.83;1.30;;;25.70;67.70;;;;;;5074585;28;20235;-69
2020/12/26 03:26:15;;;;;;;6.10;1.30;;;25.50;68.60;;;;;;5074360;28;20191;-70
2020/12/26 03:28:43;;;;;;;8.13;1.73;;;25.40;67.10;;;;;;5074823;28;20167;-70
2020/12/26 03:31:10;;;;;;;6.60;1.50;;;25.50;68.10;;;;;;5074452;28;20179;-71
2020/12/26 03:33:38;;;;;;;8.63;1.50;;;26.10;66.60;;;;;;5074086;28;20681;-72
2020/12/26 03:36:05;;;;;;;8.93;1.97;;;26.10;65.80;;;;;;5074043;28;20206;-73
2020/12/26 03:38:32;;;;;;;7.80;1.53;;;26.10;66.60;;;;;;5074549;28;20175;-72
2020/12/26 03:41:01;;;;;;;6.97;1.63;;;25.60;67.50;;;;;;5063038;28;20215;-72
2020/12/26 03:43:28;;;;;;;8.33;1.60;;;25.30;68.00;;;;;;5062524;28;20193;-76
2020/12/26 03:45:55;;;;;;;6.50;1.80;;;25.00;69.00;;;;;;5074325;28;20179;-71
2020/12/26 03:48:23;;;;;;;8.27;1.40;;;25.30;68.20;;;;;;5060120;28;20195;-70
2020/12/26 03:50:50;;;;;;;13.77;1.77;;;25.10;67.60;;;;;;5054245;28;20250;-73
2020/12/26 03:53:17;;;;;;;7.13;1.20;;;24.80;68.80;;;;;;5070261;28;20602;-70
2020/12/26 03:55:45;;;;;;;9.10;1.87;;;24.60;70.40;;;;;;5065046;28;20241;-69
2020/12/26 03:58:12;;;;;;;6.63;1.30;;;24.60;70.80;;;;;;5071708;28;20178;-70
2020/12/26 04:00:39;;;;;;;8.27;1.80;;;24.60;70.40;;;;;;5070938;28;20700;-71
2020/12/26 04:03:07;;;;;;;10.90;1.50;;;24.60;69.80;;;;;;5067025;28;20641;-71
2020/12/26 04:05:34;;;;;;;11.37;2.40;;;24.70;69.30;;;;;;5074039;28;20179;-71
2020/12/26 04:08:01;;;;;;;7.00;1.50;;;25.00;69.10;;;;;;5069877;28;21073;-70
2020/12/26 04:10:29;;;;;;;9.97;1.70;;;24.90;69.40;;;;;;5073165;28;20549;-70
2020/12/26 04:12:56;;;;;;;11.93;2.17;;;24.60;69.90;;;;;;5071604;28;20183;-71
2020/12/26 04:15:23;;;;;;;7.60;1.47;;;24.20;70.90;;;;;;5057555;28;20164;-70
2020/12/26 04:17:51;;;;;;;4.37;1.30;;;24.10;71.60;;;;;;5053281;28;20183;-68
2020/12/26 04:20:18;;;;;;;6.97;2.37;;;24.00;71.90;;;;;;5067136;28;20586;-70
2020/12/26 04:22:45;;;;;;;5.30;1.30;;;24.10;72.50;;;;;;5060349;28;20190;-70
2020/12/26 04:25:13;;;;;;;9.77;3.13;;;24.40;70.60;;;;;;5063439;28;20711;-69
2020/12/26 04:27:40;;;;;;;11.73;3.87;;;24.60;70.70;;;;;;5056856;28;20175;-69
2020/12/26 04:30:07;;;;;;;9.23;1.93;;;24.80;70.00;;;;;;5062659;28;20190;-69
2020/12/26 04:32:35;;;;;;;6.40;1.60;;;25.30;68.90;;;;;;5063653;28;20183;-70
2020/12/26 04:35:04;;;;;;;7.10;1.70;;;25.20;68.10;;;;;;5064768;28;20168;-70
2020/12/26 04:37:31;;;;;;;7.07;1.63;;;25.10;69.10;;;;;;5064948;28;20279;-71
2020/12/26 04:39:59;;;;;;;7.90;1.87;;;24.80;69.30;;;;;;5064246;28;20207;-70
2020/12/26 04:42:27;;;;;;;8.20;3.00;;;24.50;70.00;;;;;;5067875;28;20259;-69
2020/12/26 04:44:56;;;;;;;7.93;2.30;;;24.10;71.40;;;;;;5067548;28;20245;-68
2020/12/26 04:47:48;;;;;;;10.37;1.63;;;24.00;73.10;;;;;;5065887;28;20595;-69
2020/12/26 04:50:16;;;;;;;9.87;2.40;;;23.80;73.20;;;;;;5069526;28;20653;-69
2020/12/26 04:52:46;;;;;;;8.87;1.60;;;23.50;73.90;;;;;;5065600;28;20592;-69
2020/12/26 04:55:15;;;;;;;8.87;1.73;;;23.40;74.20;;;;;;5064752;28;20184;-69
2020/12/26 04:57:43;;;;;;;8.20;1.63;;;23.30;75.10;;;;;;5063860;28;20229;-69
2020/12/26 05:00:11;;;;;;;8.27;1.37;;;23.20;75.30;;;;;;5067774;28;20207;-72
2020/12/26 05:02:43;;;;;;;11.10;1.47;;;23.10;76.30;;;;;;5067439;28;20199;-74
2020/12/26 05:05:10;;;;;;;6.10;1.60;;;23.00;76.10;;;;;;5063485;28;20253;-71
2020/12/26 05:07:38;;;;;;;9.57;1.30;;;22.90;76.70;;;;;;5065373;28;20184;-71
2020/12/26 05:10:06;;;;;;;10.23;1.90;;;22.80;76.80;;;;;;5060029;28;20176;-70
2020/12/26 05:12:33;;;;;;;7.33;1.47;;;22.80;77.30;;;;;;5061451;28;20190;-71
2020/12/26 05:15:03;;;;;;;9.40;1.80;;;22.50;77.60;;;;;;5065884;28;20179;-70
2020/12/26 05:17:30;;;;;;;12.17;1.73;;;22.50;78.00;;;;;;5068629;28;20183;-71
2020/12/26 05:19:57;;;;;;;7.77;1.87;;;22.50;78.60;;;;;;5064668;28;20203;-69
2020/12/26 05:22:25;;;;;;;8.27;1.70;;;22.50;79.00;;;;;;5066761;28;20257;-68
2020/12/26 05:24:52;;;;;;;8.47;2.00;;;22.50;79.50;;;;;;5061459;28;20250;-72
2020/12/26 05:27:25;;;;;;;11.80;1.97;;;22.50;79.70;;;;;;5059044;28;20646;-69
2020/12/26 05:29:53;;;;;;;14.07;1.83;;;22.40;80.10;;;;;;5059171;28;20219;-70
2020/12/26 05:32:22;;;;;;;7.63;1.63;;;22.30;80.10;;;;;;5058735;28;20257;-70
2020/12/26 05:34:50;;;;;;;6.67;2.20;;;22.40;80.60;;;;;;5060340;28;20187;-69
2020/12/26 05:37:17;;;;;;;9.87;1.77;;;22.30;80.70;;;;;;5063259;28;20179;-69
2020/12/26 05:39:45;;;;;;;11.93;1.60;;;22.40;80.00;;;;;;5062679;28;20232;-70
2020/12/26 05:42:22;;;;;;;9.67;1.90;;;22.30;80.40;;;;;;5068578;28;20175;-68
2020/12/26 05:44:49;;;;;;;10.53;1.73;;;22.20;80.80;;;;;;5062031;28;20656;-69
2020/12/26 05:47:16;;;;;;;11.87;2.67;;;22.20;81.40;;;;;;5070540;28;20267;-70
2020/12/26 05:49:44;;;;;;;11.60;2.47;;;22.10;79.90;;;;;;5065565;28;20186;-72
2020/12/26 05:52:14;;;;;;;10.70;2.30;;;22.10;80.50;;;;;;5065747;28;20210;-70
2020/12/26 05:54:52;;;;;;;11.10;2.03;;;22.10;80.50;;;;;;5069187;28;20543;-70
2020/12/26 05:57:20;;;;;;;7.07;1.70;;;22.10;80.70;;;;;;5061346;28;20179;-69
2020/12/26 05:59:55;;;;;;;7.53;2.10;;;22.10;80.10;;;;;;5065113;28;20207;-70
2020/12/26 06:02:29;;;;;;;10.07;2.10;;;22.00;79.90;;;;;;5056481;28;20646;-70
2020/12/26 06:05:00;;;;;;;7.60;1.50;;;22.00;80.10;;;;;;5059189;28;20180;-70
2020/12/26 06:07:29;;;;;;;13.57;1.90;;;22.10;80.30;;;;;;5068357;28;20649;-70
2020/12/26 06:09:59;;;;;;;6.53;1.63;;;22.00;80.60;;;;;;5059268;28;20188;-69
2020/12/26 06:12:28;;;;;;;10.10;1.97;;;22.00;81.20;;;;;;5053251;28;20178;-72
2020/12/26 06:14:56;;;;;;;12.13;2.40;;;22.00;81.50;;;;;;5060567;28;20233;-71
2020/12/26 06:17:31;;;;;;;13.53;2.13;;;22.00;81.60;;;;;;5056049;28;20545;-71
2020/12/26 06:20:06;;;;;;;9.07;2.13;;;22.00;81.40;;;;;;5060890;28;20702;-72
2020/12/26 06:22:44;;;;;;;11.30;3.40;;;21.90;81.20;;;;;;5061081;28;20185;-69
2020/12/26 06:25:13;;;;;;;17.07;6.37;;;21.90;81.70;;;;;;5064868;28;20306;-70
2020/12/26 06:27:59;;;;;;;6.03;1.67;;;21.90;81.60;;;;;;5067016;28;20179;-71
2020/12/26 06:30:28;;;;;;;12.30;1.80;;;21.90;81.50;;;;;;5068470;28;20645;-67
2020/12/26 06:32:57;;;;;;;10.53;1.80;;;21.90;81.80;;;;;;5062977;28;20214;-71
2020/12/26 06:35:25;;;;;;;9.53;1.30;;;21.90;81.60;;;;;;5064729;28;20548;-70
2020/12/26 06:38:15;;;;;;;6.93;1.37;;;22.00;81.60;;;;;;5062408;28;20172;-70
2020/12/26 06:40:54;;;;;;;10.03;1.90;;;22.00;81.40;;;;;;5065679;28;20215;-70
2020/12/26 06:43:40;;;;;;;7.13;1.43;;;21.90;80.90;;;;;;5064714;28;20219;-71
2020/12/26 06:46:22;;;;;;;8.80;1.60;;;21.90;81.20;;;;;;5063647;28;20547;-73
2020/12/26 06:48:57;;;;;;;7.97;1.80;;;22.00;81.20;;;;;;5066060;28;20220;-71
2020/12/26 06:51:37;;;;;;;9.40;1.70;;;21.90;81.70;;;;;;5064728;28;20203;-72
2020/12/26 06:54:07;;;;;;;10.37;2.00;;;22.00;81.80;;;;;;5067060;28;20190;-72
2020/12/26 06:56:34;;;;;;;6.57;1.70;;;22.00;81.60;;;;;;5058679;28;20180;-72
2020/12/26 06:59:09;;;;;;;8.53;1.30;;;22.00;81.90;;;;;;5063829;28;20168;-72
2020/12/26 07:01:42;;;;;;;8.27;1.97;;;21.90;81.70;;;;;;5065007;28;20194;-71
2020/12/26 07:04:22;;;;;;;9.57;1.80;;;21.90;81.70;;;;;;5063353;28;20173;-72
2020/12/26 07:06:54;;;;;;;9.30;2.90;;;21.90;81.80;;;;;;5064485;28;20175;-71
2020/12/26 07:09:41;;;;;;;10.07;3.50;;;21.90;83.00;;;;;;5068714;28;20260;-72
2020/12/26 07:12:09;;;;;;;8.20;1.60;;;21.80;84.40;;;;;;5069352;28;20810;-71
2020/12/26 07:14:38;;;;;;;8.30;2.03;;;21.80;85.30;;;;;;5057865;28;20176;-70
2020/12/26 07:17:11;;;;;;;11.97;1.87;;;21.70;85.50;;;;;;5068220;28;20171;-71
2020/12/26 07:19:43;;;;;;;8.43;2.30;;;21.80;85.50;;;;;;5061834;28;20194;-68
2020/12/26 07:22:17;;;;;;;5.17;1.30;;;21.80;86.80;;;;;;5065424;28;20188;-69
2020/12/26 07:25:04;;;;;;;11.00;3.17;;;21.80;86.40;;;;;;5063566;28;20222;-70
2020/12/26 07:27:37;;;;;;;14.43;2.33;;;21.60;87.90;;;;;;5068529;28;20183;-71
2020/12/26 07:30:14;;;;;;;14.17;1.87;;;21.70;88.20;;;;;;5058468;28;20172;-69
2020/12/26 07:32:45;;;;;;;16.13;2.13;;;21.80;89.40;;;;;;5059672;28;20547;-71
2020/12/26 07:35:22;;;;;;;6.47;1.63;;;21.90;89.30;;;;;;5064190;28;20573;-70
2020/12/26 07:37:52;;;;;;;12.43;2.10;;;22.10;88.60;;;;;;5064536;28;20190;-69
2020/12/26 07:40:22;;;;;;;13.27;2.67;;;22.10;87.70;;;;;;5066302;28;20671;-69
2020/12/26 07:42:49;;;;;;;11.13;1.57;;;22.00;87.20;;;;;;5063635;28;20775;-68
2020/12/26 07:45:19;;;;;;;12.13;2.20;;;21.90;88.10;;;;;;5066126;28;20182;-70
2020/12/26 07:47:48;;;;;;;9.67;2.90;;;21.80;87.80;;;;;;5063370;28;20242;-72
2020/12/26 07:50:19;;;;;;;10.40;2.40;;;21.70;88.00;;;;;;5068887;28;20171;-68
2020/12/26 07:52:51;;;;;;;11.10;2.30;;;21.60;88.80;;;;;;5066017;28;20234;-67
2020/12/26 07:55:19;;;;;;;7.73;1.43;;;21.50;88.30;;;;;;5063828;28;20195;-68
2020/12/26 07:57:47;;;;;;;12.17;2.40;;;21.60;88.10;;;;;;5066582;28;20177;-69
2020/12/26 08:00:28;;;;;;;11.10;2.90;;;21.50;88.30;;;;;;5069681;28;20254;-69
2020/12/26 08:02:58;;;;;;;9.60;2.33;;;21.50;87.20;;;;;;5069570;28;20258;-70
2020/12/26 08:05:30;;;;;;;11.37;2.63;;;21.50;87.20;;;;;;5063957;28;20179;-70
2020/12/26 08:07:59;;;;;;;16.73;3.47;;;21.50;87.20;;;;;;5058318;28;20179;-68
2020/12/26 08:10:28;;;;;;;18.43;3.23;;;21.60;86.60;;;;;;5068007;28;20199;-68
2020/12/26 08:12:59;;;;;;;12.57;6.20;;;21.50;86.40;;;;;;5057120;28;20516;-70
2020/12/26 08:15:29;;;;;;;12.87;4.17;;;21.50;86.10;;;;;;5058389;28;20585;-69
2020/12/26 08:18:02;;;;;;;18.00;4.10;;;21.60;86.30;;;;;;5057114;28;20187;-68
2020/12/26 08:20:31;;;;;;;8.73;2.27;;;21.50;86.30;;;;;;5063861;28;20292;-69
2020/12/26 08:22:59;;;;;;;15.67;2.73;;;21.50;86.60;;;;;;5060696;28;20190;-69
2020/12/26 08:25:28;;;;;;;17.33;4.40;;;21.50;87.10;;;;;;5063186;28;20215;-70
2020/12/26 08:27:55;;;;;;;10.50;2.67;;;21.50;87.40;;;;;;5058156;28;20184;-69
2020/12/26 08:30:27;;;;;;;9.03;2.93;;;21.50;87.00;;;;;;5060232;28;20175;-69
2020/12/26 08:32:56;;;;;;;11.30;2.00;;;21.40;86.60;;;;;;5061552;28;20203;-69
2020/12/26 08:35:26;;;;;;;11.13;2.37;;;21.40;86.60;;;;;;5063777;28;20581;-71
2020/12/26 08:38:02;;;;;;;10.00;1.70;;;21.50;86.30;;;;;;5063103;28;20187;-71
2020/12/26 08:40:32;;;;;;;8.43;2.20;;;21.40;85.80;;;;;;5058963;28;20305;-70
2020/12/26 08:43:00;;;;;;;12.77;2.43;;;21.50;86.00;;;;;;5059209;28;20228;-70
2020/12/26 08:45:35;;;;;;;11.37;2.60;;;21.50;86.00;;;;;;5063715;28;20644;-69
2020/12/26 08:48:17;;;;;;;14.93;2.33;;;21.50;86.50;;;;;;5065692;28;20542;-70
2020/12/26 08:50:58;;;;;;;8.73;1.90;;;21.40;86.30;;;;;;5066646;28;20206;-70
2020/12/26 08:53:25;;;;;;;15.23;2.30;;;21.50;86.30;;;;;;5068556;28;20179;-71
2020/12/26 08:55:54;;;;;;;11.07;2.00;;;21.40;86.60;;;;;;5063597;28;20195;-71
2020/12/26 08:58:29;;;;;;;13.63;3.73;;;21.40;87.30;;;;;;5062455;28;20175;-71
2020/12/26 09:01:06;;;;;;;17.03;2.70;;;21.40;87.70;;;;;;5061712;28;20211;-71
2020/12/26 09:03:35;;;;;;;10.40;3.60;;;21.40;87.00;;;;;;5064832;28;20183;-69
2020/12/26 09:06:04;;;;;;;9.80;3.10;;;21.40;86.60;;;;;;5053364;28;20213;-70
2020/12/26 09:08:38;;;;;;;12.30;1.80;;;21.50;85.80;;;;;;5062961;28;20191;-69
2020/12/26 09:11:11;;;;;;;11.63;2.30;;;21.50;85.40;;;;;;5060675;28;20183;-71
2020/12/26 09:13:40;;;;;;;11.63;2.53;;;21.50;86.30;;;;;;5055125;28;20208;-70
2020/12/26 09:16:10;;;;;;;10.20;2.73;;;21.30;87.60;;;;;;5064374;28;20187;-69
2020/12/26 09:18:46;;;;;;;14.70;3.90;;;21.20;89.20;;;;;;5067991;28;20184;-72
2020/12/26 09:21:24;;;;;;;9.70;1.93;;;21.00;90.10;;;;;;5063272;28;20589;-70
2020/12/26 09:23:53;;;;;;;11.27;2.50;;;20.80;90.80;;;;;;5056860;28;20602;-69
2020/12/26 09:26:29;;;;;;;19.37;5.23;;;20.60;91.30;;;;;;5065561;28;20280;-72
2020/12/26 09:28:58;;;;;;;10.50;2.07;;;20.50;91.40;;;;;;5068599;28;20541;-71
2020/12/26 09:31:41;;;;;;;10.07;2.07;;;20.40;91.70;;;;;;5062298;28;20191;-70
2020/12/26 09:34:18;;;;;;;15.43;3.20;;;20.40;92.00;;;;;;5052812;28;20176;-69
2020/12/26 09:36:46;;;;;;;15.23;2.20;;;20.40;92.50;;;;;;5064600;28;20581;-69
2020/12/26 09:39:14;;;;;;;10.97;2.33;;;20.30;92.40;;;;;;5066669;28;20207;-70
2020/12/26 09:41:47;;;;;;;10.47;2.90;;;20.30;92.80;;;;;;5059160;28;20199;-72
2020/12/26 09:44:15;;;;;;;11.23;2.43;;;20.30;92.90;;;;;;5063660;28;20197;-71
2020/12/26 09:46:45;;;;;;;15.70;3.87;;;20.20;93.00;;;;;;5063020;28;20528;-70
2020/12/26 09:49:12;;;;;;;17.43;2.73;;;20.10;93.20;;;;;;5063763;28;20187;-70
2020/12/26 09:51:40;;;;;;;49.03;25.33;;;20.10;93.50;;;;;;5066452;28;20180;-70
2020/12/26 09:54:07;;;;;;;14.13;3.43;;;20.00;93.60;;;;;;5056434;28;20184;-69
2020/12/26 09:56:35;;;;;;;25.80;9.67;;;20.00;93.80;;;;;;5060745;28;20317;-70
2020/12/26 09:59:02;;;;;;;16.60;2.30;;;20.00;94.40;;;;;;5059981;28;20184;-70
2020/12/26 10:01:30;;;;;;;13.40;2.10;;;19.80;95.00;;;;;;5061489;28;20187;-70
2020/12/26 10:03:57;;;;;;;20.67;2.77;;;19.80;95.70;;;;;;5067864;28;20176;-71
2020/12/26 10:06:25;;;;;;;20.73;3.03;;;19.60;95.80;;;;;;5061520;28;20182;-71
2020/12/26 10:08:52;;;;;;;14.17;2.83;;;19.50;96.10;;;;;;5071187;28;20317;-71
2020/12/26 10:11:20;;;;;;;14.53;2.23;;;19.50;96.60;;;;;;5058002;28;20230;-72
2020/12/26 10:13:49;;;;;;;12.83;2.23;;;19.40;95.80;;;;;;5065660;28;20589;-69
2020/12/26 10:16:18;;;;;;;10.33;1.97;;;19.40;95.70;;;;;;5060267;28;20249;-71
2020/12/26 10:18:46;;;;;;;10.20;2.40;;;19.40;95.50;;;;;;5059277;28;20258;-70
2020/12/26 10:21:19;;;;;;;11.83;3.40;;;19.50;94.90;;;;;;5062128;28;20216;-69
2020/12/26 10:23:47;;;;;;;9.60;2.40;;;19.40;95.10;;;;;;5066415;28;20545;-71
2020/12/26 10:26:14;;;;;;;9.70;2.60;;;19.40;95.20;;;;;;5063036;28;20199;-70
2020/12/26 10:28:42;;;;;;;13.20;2.00;;;19.40;95.30;;;;;;5062951;28;20287;-71
2020/12/26 10:31:09;;;;;;;10.60;1.97;;;19.40;95.20;;;;;;5061659;28;20199;-70
2020/12/26 10:33:37;;;;;;;13.80;2.13;;;19.40;95.30;;;;;;5068635;28;20717;-71
2020/12/26 10:36:04;;;;;;;10.70;1.87;;;19.50;95.00;;;;;;5062993;28;20175;-73
2020/12/26 10:38:31;;;;;;;12.33;2.33;;;19.60;95.00;;;;;;5057949;28;20183;-70
2020/12/26 10:40:59;;;;;;;8.77;2.40;;;19.60;95.30;;;;;;5063417;28;20215;-69
2020/12/26 10:43:26;;;;;;;12.27;2.60;;;19.60;95.20;;;;;;5067479;28;20242;-70
2020/12/26 10:45:53;;;;;;;20.97;3.03;;;19.50;95.60;;;;;;5066637;28;20187;-68
2020/12/26 10:48:21;;;;;;;21.60;4.53;;;19.60;95.50;;;;;;5058252;28;20184;-73
2020/12/26 10:50:48;;;;;;;15.60;3.67;;;19.60;95.80;;;;;;5067325;28;20176;-71
2020/12/26 10:53:15;;;;;;;16.73;3.87;;;19.50;96.50;;;;;;5066975;28;20287;-69
2020/12/26 10:55:42;;;;;;;22.83;6.20;;;19.40;96.40;;;;;;5063251;28;20224;-70
2020/12/26 10:58:10;;;;;;;15.20;3.33;;;19.40;96.80;;;;;;5070586;28;20179;-69
2020/12/26 11:00:37;;;;;;;14.17;3.17;;;19.30;97.00;;;;;;5067666;28;20223;-69
2020/12/26 11:03:04;;;;;;;16.40;2.70;;;19.30;96.70;;;;;;5066400;28;20634;-72
2020/12/26 11:05:32;;;;;;;13.30;2.20;;;19.30;96.50;;;;;;5059347;28;20191;-69
2020/12/26 11:07:59;;;;;;;13.80;3.30;;;19.30;96.20;;;;;;5063875;28;20187;-70
2020/12/26 11:10:26;;;;;;;12.33;3.47;;;19.30;96.30;;;;;;5069702;28;20582;-69
2020/12/26 11:12:54;;;;;;;17.97;6.03;;;19.40;95.60;;;;;;5066859;28;20175;-71
2020/12/26 11:15:21;;;;;;;15.40;4.03;;;19.50;95.40;;;;;;5061558;28;20184;-69
2020/12/26 11:17:49;;;;;;;14.77;4.23;;;19.50;95.60;;;;;;5067566;28;20237;-69
2020/12/26 11:20:16;;;;;;;22.00;5.23;;;19.60;95.30;;;;;;5064628;28;20689;-69
2020/12/26 11:22:44;;;;;;;16.73;2.70;;;19.50;95.60;;;;;;5069963;28;20202;-70
2020/12/26 11:25:11;;;;;;;17.20;3.27;;;19.50;95.10;;;;;;5061558;28;20231;-69
2020/12/26 11:27:39;;;;;;;9.77;2.50;;;19.50;95.10;;;;;;5064361;28;20187;-71
2020/12/26 11:30:06;;;;;;;12.33;2.20;;;19.40;94.90;;;;;;5060121;28;20186;-69
2020/12/26 11:32:34;;;;;;;19.77;3.23;;;19.50;94.90;;;;;;5065795;28;20654;-72
2020/12/26 11:35:01;;;;;;;12.77;3.77;;;19.40;94.90;;;;;;5062262;28;20540;-75
2020/12/26 11:37:31;;;;;;;9.43;1.97;;;19.40;94.70;;;;;;5069101;28;20248;-72
2020/12/26 11:39:59;;;;;;;13.90;2.33;;;19.40;94.80;;;;;;5060597;28;20206;-71
2020/12/26 11:42:26;;;;;;;17.50;2.27;;;19.40;94.70;;;;;;5065972;28;20207;-72
2020/12/26 11:44:54;;;;;;;16.97;2.60;;;19.40;94.70;;;;;;5063975;28;20636;-69
2020/12/26 11:47:21;;;;;;;13.10;2.13;;;19.40;94.70;;;;;;5058185;28;20230;-72
2020/12/26 11:49:49;;;;;;;11.23;2.10;;;19.50;94.70;;;;;;5059190;28;20198;-70
2020/12/26 11:52:16;;;;;;;10.90;2.10;;;19.50;94.80;;;;;;5071193;28;20236;-69
2020/12/26 11:54:44;;;;;;;9.20;2.40;;;19.50;94.90;;;;;;5068357;28;20944;-70
2020/12/26 11:57:11;;;;;;;15.40;2.20;;;19.50;95.10;;;;;;5066458;28;20184;-71
2020/12/26 11:59:39;;;;;;;12.10;2.37;;;19.50;95.00;;;;;;5064469;28;20251;-73
2020/12/26 12:02:06;;;;;;;15.67;2.30;;;19.50;95.30;;;;;;5062652;28;20367;-72
2020/12/26 12:04:33;;;;;;;14.03;2.63;;;19.40;95.50;;;;;;5055730;28;20242;-70
2020/12/26 12:07:01;;;;;;;23.40;2.33;;;19.40;95.70;;;;;;5058792;28;20263;-70
2020/12/26 12:09:28;;;;;;;13.00;2.53;;;19.40;95.50;;;;;;5057370;28;20278;-73
2020/12/26 12:11:56;;;;;;;10.83;2.00;;;19.40;95.40;;;;;;5059818;28;20180;-72
2020/12/26 12:14:23;;;;;;;21.23;2.93;;;19.40;95.70;;;;;;5059343;28;20192;-72
2020/12/26 12:16:50;;;;;;;27.43;3.70;;;19.40;95.70;;;;;;5060493;28;20267;-72
2020/12/26 12:19:18;;;;;;;16.10;2.53;;;19.40;96.10;;;;;;5062736;28;20191;-72
2020/12/26 12:21:46;;;;;;;19.30;3.00;;;19.40;96.10;;;;;;5058545;28;20182;-73
2020/12/26 12:24:14;;;;;;;15.20;2.73;;;19.40;95.60;;;;;;5056901;28;20233;-72
2020/12/26 12:26:41;;;;;;;18.07;3.20;;;19.40;95.50;;;;;;5058737;28;20738;-69
2020/12/26 12:29:09;;;;;;;18.27;2.50;;;19.30;96.00;;;;;;5067857;28;20180;-70
2020/12/26 12:31:38;;;;;;;11.37;2.60;;;19.20;95.80;;;;;;5068467;28;20183;-69
2020/12/26 12:34:06;;;;;;;15.87;2.20;;;19.20;95.80;;;;;;5063490;28;20187;-73
2020/12/26 12:36:34;;;;;;;10.70;2.10;;;19.20;95.80;;;;;;5064299;28;20188;-72
2020/12/26 12:39:03;;;;;;;13.10;2.67;;;19.30;95.60;;;;;;5054080;28;20188;-70
2020/12/26 12:41:30;;;;;;;11.27;2.20;;;19.30;96.30;;;;;;5063530;28;20575;-74
2020/12/26 12:43:58;;;;;;;17.73;3.13;;;19.20;96.30;;;;;;5068391;28;20542;-72
2020/12/26 12:46:25;;;;;;;15.87;2.93;;;19.20;96.60;;;;;;5065017;28;20187;-73
2020/12/26 12:48:53;;;;;;;15.67;2.33;;;19.20;96.70;;;;;;5061351;28;20179;-72
2020/12/26 12:51:26;;;;;;;17.57;2.60;;;19.20;97.00;;;;;;5056440;28;20552;-72